Главная страница
METAR-TAF:

METAR-TAF

Аэропорты :

Антонов

Гостомель, Украина

широта: 50-36-01N, долгота: 030-11-37E, высота над уровнем моря: 157 м

Текущие метеонаблюдения

Эта сводка был подготовлена 15 минут назад, в 01:00 UTC
Штиль
Температура 6°C
Влажность 100%
Давление 1028 hPa
Видимость: 5000 м
дымка

METAR: UKKM 160100Z AUTO 00000MPS 5000 BR ///////// 06/06 Q1028

Время: 04:15 (01:15 UTC)


TAF: отсутствует

Метеонаблюдения и прогнозы для более 4000 аэропортов (сводки METAR и TAF).

Имеющиеся станции представлены на карте желтыми и красными точками.

Чтобы увидеть название станции, наведите на нее мышь.

Затем щелкните, чтобы увидеть метеонаблюдения и метеопрогнозы.

Управление картой: чтобы увеличить масштаб, щелкните зеленые кнопки с черным крестиком; чтобы уменьшить масштаб, щелкните зеленую кнопку с тире; для просмотра соседних карт щелкайте зеленые стрелки.


METAR-TAF: